Louisville, Colorado
Current Conditions -  °F | °C
As of 11:15 PM on Tuesday 21 Oct 2014 (Local Time) from KEIK Reporting Station
Moderate Rain Moderate Rain  
Wind Chill: 56°   Ceiling: 9000
Heat Index: 56°   Visibility: 10mi
Dew Point: 46°   Wind: 14mph
Humidity: 70%   Direction: 310°NW
Pressure: 29.95"   Gusts: NA
Location:  39.98°N, 105.13°W
Report Text: KEIK 220515Z AUTO 31012KT 10SM RA SCT065 OVC090 13/08 A2995 RMK AO2 T01310078
Loading
Personal Weather Stations






























Interactive Weather Map
Tropical Storm Tracking
New forecast layout! Learn more

10-Day Weather Forecast

Advertisements
Track Severe Weather on mobile